Buhara, Uzbekistan
Current Conditions -  °F | °C
As of 7:00 PM on Monday 24 Nov 2014 (Local Time) from UTSB Reporting Station
Overcast Overcast  
Wind Chill: 46°   Ceiling: 4200
Heat Index: 48°   Visibility: 6mi
Dew Point: 37°   Wind: 5mph
Humidity: 66%   Direction: 250°WSW
Pressure: 30.27"   Gusts: NA
Location:  39.72°N, 64.62°E
Report Text: UTSB 241400Z 25004KT 210V300 9999 OVC042 09/03 Q1025 R01/CLRD70NOSIG
Loading
Personal Weather Stations






























Interactive Weather Map New forecast layout! Learn more

10-Day Weather Forecast

Advertisements
Track Severe Weather on mobile